sensor_id;sensor_type;location;lat;lon;timestamp;temperature;humidity
6536;DHT22;34330;52.08032700;5.40923460;2022-12-18T00:02:00;1.10;83.20
6536;DHT22;34330;52.08032700;5.40923460;2022-12-18T00:04:32;1.10;83.10
6536;DHT22;34330;52.08032700;5.40923460;2022-12-18T00:07:00;1.10;83.10
6536;DHT22;34330;52.08032700;5.40923460;2022-12-18T00:09:28;1.00;82.80
6536;DHT22;34330;52.08032700;5.40923460;2022-12-18T00:12:10;1.00;82.90
6536;DHT22;34330;52.08032700;5.40923460;2022-12-18T00:14:44;0.90;83.00
6536;DHT22;34330;52.08032700;5.40923460;2022-12-18T00:19:42;0.90;83.00
6536;DHT22;34330;52.08032700;5.40923460;2022-12-18T00:22:10;0.90;83.00
6536;DHT22;34330;52.08032700;5.40923460;2022-12-18T00:24:41;0.90;83.20
6536;DHT22;34330;52.08032700;5.40923460;2022-12-18T00:27:09;0.90;83.20
6536;DHT22;34330;52.08032700;5.40923460;2022-12-18T00:29:46;0.90;83.20
6536;DHT22;34330;52.08032700;5.40923460;2022-12-18T00:32:18;0.90;83.20
6536;DHT22;34330;52.08032700;5.40923460;2022-12-18T00:34:57;0.80;82.80
6536;DHT22;34330;52.08032700;5.40923460;2022-12-18T00:37:28;0.80;82.80
6536;DHT22;34330;52.08032700;5.40923460;2022-12-18T00:40:09;0.80;82.90
6536;DHT22;34330;52.08032700;5.40923460;2022-12-18T00:42:37;0.70;82.90
6536;DHT22;34330;52.08032700;5.40923460;2022-12-18T00:45:23;0.70;82.90
6536;DHT22;34330;52.08032700;5.40923460;2022-12-18T00:47:52;0.70;82.90
6536;DHT22;34330;52.08032700;5.40923460;2022-12-18T00:50:29;0.70;83.00
6536;DHT22;34330;52.08032700;5.40923460;2022-12-18T00:57:57;0.60;83.10
6536;DHT22;34330;52.08032700;5.40923460;2022-12-18T01:00:25;0.60;83.00
6536;DHT22;34330;52.08032700;5.40923460;2022-12-18T01:02:58;0.60;83.00
6536;DHT22;34330;52.08032700;5.40923460;2022-12-18T01:05:26;0.70;82.80
6536;DHT22;34330;52.08032700;5.40923460;2022-12-18T01:07:56;0.60;82.50
6536;DHT22;34330;52.08032700;5.40923460;2022-12-18T01:10:43;0.60;82.20
6536;DHT22;34330;52.08032700;5.40923460;2022-12-18T01:20:44;0.40;81.90
6536;DHT22;34330;52.08032700;5.40923460;2022-12-18T01:23:16;0.40;81.80
6536;DHT22;34330;52.08032700;5.40923460;2022-12-18T01:25:51;0.30;81.20
6536;DHT22;34330;52.08032700;5.40923460;2022-12-18T01:38:25;0.10;82.00
6536;DHT22;34330;52.08032700;5.40923460;2022-12-18T01:40:57;0.10;81.90
6536;DHT22;34330;52.08032700;5.40923460;2022-12-18T01:43:41;0.10;81.90
6536;DHT22;34330;52.08032700;5.40923460;2022-12-18T01:46:12;0.10;81.80
6536;DHT22;34330;52.08032700;5.40923460;2022-12-18T01:48:41;0.10;81.80
6536;DHT22;34330;52.08032700;5.40923460;2022-12-18T01:51:10;-0.10;81.50
6536;DHT22;34330;52.08032700;5.40923460;2022-12-18T01:53:56;0.00;81.50
6536;DHT22;34330;52.08032700;5.40923460;2022-12-18T01:56:24;-0.10;81.50
6536;DHT22;34330;52.08032700;5.40923460;2022-12-18T01:58:56;-0.10;81.50
6536;DHT22;34330;52.08032700;5.40923460;2022-12-18T02:01:35;-0.10;81.40
6536;DHT22;34330;52.08032700;5.40923460;2022-12-18T02:04:23;-0.20;81.40
6536;DHT22;34330;52.08032700;5.40923460;2022-12-18T02:06:55;-0.10;81.60
6536;DHT22;34330;52.08032700;5.40923460;2022-12-18T02:09:31;-0.20;81.60
6536;DHT22;34330;52.08032700;5.40923460;2022-12-18T02:12:08;-0.20;81.70
6536;DHT22;34330;52.08032700;5.40923460;2022-12-18T02:14:45;-0.10;81.80
6536;DHT22;34330;52.08032700;5.40923460;2022-12-18T02:17:21;-0.20;81.60
6536;DHT22;34330;52.08032700;5.40923460;2022-12-18T02:20:02;-0.20;81.80
6536;DHT22;34330;52.08032700;5.40923460;2022-12-18T02:22:43;-0.20;81.70
6536;DHT22;34330;52.08032700;5.40923460;2022-12-18T02:25:25;-0.30;81.60
6536;DHT22;34330;52.08032700;5.40923460;2022-12-18T02:28:05;-0.20;81.60
6536;DHT22;34330;52.08032700;5.40923460;2022-12-18T02:30:49;-0.30;81.40
6536;DHT22;34330;52.08032700;5.40923460;2022-12-18T02:33:21;-0.20;81.40
6536;DHT22;34330;52.08032700;5.40923460;2022-12-18T02:35:55;-0.30;80.90
6536;DHT22;34330;52.08032700;5.40923460;2022-12-18T02:38:25;-0.20;81.20
6536;DHT22;34330;52.08032700;5.40923460;2022-12-18T02:41:02;-0.30;81.00
6536;DHT22;34330;52.08032700;5.40923460;2022-12-18T02:43:33;-0.30;80.80
6536;DHT22;34330;52.08032700;5.40923460;2022-12-18T02:46:23;-0.40;80.80
6536;DHT22;34330;52.08032700;5.40923460;2022-12-18T02:48:57;-0.30;80.80
6536;DHT22;34330;52.08032700;5.40923460;2022-12-18T02:51:32;-0.30;80.80
6536;DHT22;34330;52.08032700;5.40923460;2022-12-18T02:54:13;-0.30;80.70
6536;DHT22;34330;52.08032700;5.40923460;2022-12-18T02:56:50;-0.30;80.70
6536;DHT22;34330;52.08032700;5.40923460;2022-12-18T02:59:27;-0.40;80.50
6536;DHT22;34330;52.08032700;5.40923460;2022-12-18T03:02:02;-0.40;80.50
6536;DHT22;34330;52.08032700;5.40923460;2022-12-18T03:04:36;-0.30;80.60
6536;DHT22;34330;52.08032700;5.40923460;2022-12-18T03:07:10;-0.40;80.40
6536;DHT22;34330;52.08032700;5.40923460;2022-12-18T03:09:51;-0.50;80.50
6536;DHT22;34330;52.08032700;5.40923460;2022-12-18T03:12:28;-0.50;80.40
6536;DHT22;34330;52.08032700;5.40923460;2022-12-18T03:15:04;-0.40;80.50
6536;DHT22;34330;52.08032700;5.40923460;2022-12-18T03:17:56;-0.50;80.40
6536;DHT22;34330;52.08032700;5.40923460;2022-12-18T03:20:27;-0.50;80.30
6536;DHT22;34330;52.08032700;5.40923460;2022-12-18T03:23:04;-0.50;80.10
6536;DHT22;34330;52.08032700;5.40923460;2022-12-18T03:25:39;-0.50;80.10
6536;DHT22;34330;52.08032700;5.40923460;2022-12-18T03:28:19;-0.50;80.10
6536;DHT22;34330;52.08032700;5.40923460;2022-12-18T03:30:56;-0.50;80.10
6536;DHT22;34330;52.08032700;5.40923460;2022-12-18T03:33:27;-0.50;80.10
6536;DHT22;34330;52.08032700;5.40923460;2022-12-18T03:35:57;-0.60;80.00
6536;DHT22;34330;52.08032700;5.40923460;2022-12-18T03:41:07;-0.70;79.80
6536;DHT22;34330;52.08032700;5.40923460;2022-12-18T03:43:49;-0.70;79.60
6536;DHT22;34330;52.08032700;5.40923460;2022-12-18T03:46:33;-0.70;79.80
6536;DHT22;34330;52.08032700;5.40923460;2022-12-18T03:49:09;-0.70;79.90
6536;DHT22;34330;52.08032700;5.40923460;2022-12-18T03:51:50;-0.80;79.90
6536;DHT22;34330;52.08032700;5.40923460;2022-12-18T03:54:27;-0.80;80.10
6536;DHT22;34330;52.08032700;5.40923460;2022-12-18T03:57:03;-0.90;80.00
6536;DHT22;34330;52.08032700;5.40923460;2022-12-18T03:59:37;-0.80;80.20
6536;DHT22;34330;52.08032700;5.40923460;2022-12-18T04:02:08;-0.90;80.10
6536;DHT22;34330;52.08032700;5.40923460;2022-12-18T04:04:38;-0.90;80.00
6536;DHT22;34330;52.08032700;5.40923460;2022-12-18T04:07:10;-0.90;79.60
6536;DHT22;34330;52.08032700;5.40923460;2022-12-18T04:12:24;0.90;81.30
6536;DHT22;34330;52.08032700;5.40923460;2022-12-18T04:14:54;-1.00;79.70
6536;DHT22;34330;52.08032700;5.40923460;2022-12-18T04:17:25;-1.00;79.60
6536;DHT22;34330;52.08032700;5.40923460;2022-12-18T04:19:56;-1.10;79.80
6536;DHT22;34330;52.08032700;5.40923460;2022-12-18T04:22:24;-1.30;79.70
6536;DHT22;34330;52.08032700;5.40923460;2022-12-18T04:27:25;-1.20;79.80
6536;DHT22;34330;52.08032700;5.40923460;2022-12-18T04:34:52;-1.20;80.00
6536;DHT22;34330;52.08032700;5.40923460;2022-12-18T04:37:23;-1.40;79.80
6536;DHT22;34330;52.08032700;5.40923460;2022-12-18T04:39:54;-1.40;79.70
6536;DHT22;34330;52.08032700;5.40923460;2022-12-18T04:42:22;-1.50;79.90
6536;DHT22;34330;52.08032700;5.40923460;2022-12-18T04:44:53;-1.40;80.10
6536;DHT22;34330;52.08032700;5.40923460;2022-12-18T04:49:54;-1.40;80.20
6536;DHT22;34330;52.08032700;5.40923460;2022-12-18T04:52:23;-1.50;80.30
6536;DHT22;34330;52.08032700;5.40923460;2022-12-18T04:54:53;-1.50;80.40
6536;DHT22;34330;52.08032700;5.40923460;2022-12-18T04:57:22;-1.50;80.40
6536;DHT22;34330;52.08032700;5.40923460;2022-12-18T05:02:22;-1.50;80.20
6536;DHT22;34330;52.08032700;5.40923460;2022-12-18T05:04:55;-1.50;80.40
6536;DHT22;34330;52.08032700;5.40923460;2022-12-18T05:07:25;-1.50;80.40
6536;DHT22;34330;52.08032700;5.40923460;2022-12-18T05:09:56;-1.50;80.30
6536;DHT22;34330;52.08032700;5.40923460;2022-12-18T05:12:25;-1.40;80.30
6536;DHT22;34330;52.08032700;5.40923460;2022-12-18T05:17:22;-1.50;79.90
6536;DHT22;34330;52.08032700;5.40923460;2022-12-18T05:22:21;-1.50;79.60
6536;DHT22;34330;52.08032700;5.40923460;2022-12-18T05:24:52;-1.50;79.60
6536;DHT22;34330;52.08032700;5.40923460;2022-12-18T05:29:58;-1.50;79.40
6536;DHT22;34330;52.08032700;5.40923460;2022-12-18T05:32:30;-1.50;79.40
6536;DHT22;34330;52.08032700;5.40923460;2022-12-18T05:35:06;-1.40;79.50
6536;DHT22;34330;52.08032700;5.40923460;2022-12-18T05:37:43;-1.50;79.20
6536;DHT22;34330;52.08032700;5.40923460;2022-12-18T05:40:12;-0.90;79.60
6536;DHT22;34330;52.08032700;5.40923460;2022-12-18T05:45:23;-1.40;79.20
6536;DHT22;34330;52.08032700;5.40923460;2022-12-18T05:47:51;-1.60;78.90
6536;DHT22;34330;52.08032700;5.40923460;2022-12-18T05:50:33;-1.50;79.00
6536;DHT22;34330;52.08032700;5.40923460;2022-12-18T05:53:05;-1.50;79.10
6536;DHT22;34330;52.08032700;5.40923460;2022-12-18T05:55:38;-1.50;79.20
6536;DHT22;34330;52.08032700;5.40923460;2022-12-18T05:58:08;-1.60;79.10
6536;DHT22;34330;52.08032700;5.40923460;2022-12-18T06:02:52;-1.60;79.20
6536;DHT22;34330;52.08032700;5.40923460;2022-12-18T06:05:23;-1.60;79.10
6536;DHT22;34330;52.08032700;5.40923460;2022-12-18T06:07:56;-1.60;79.40
6536;DHT22;34330;52.08032700;5.40923460;2022-12-18T06:15:22;-1.70;79.40
6536;DHT22;34330;52.08032700;5.40923460;2022-12-18T06:17:53;-1.70;79.70
6536;DHT22;34330;52.08032700;5.40923460;2022-12-18T06:22:51;-1.60;80.10
6536;DHT22;34330;52.08032700;5.40923460;2022-12-18T06:25:26;-1.70;80.00
6536;DHT22;34330;52.08032700;5.40923460;2022-12-18T06:27:56;-1.60;80.20
6536;DHT22;34330;52.08032700;5.40923460;2022-12-18T06:30:27;-1.70;80.20
6536;DHT22;34330;52.08032700;5.40923460;2022-12-18T06:32:59;-1.80;80.20
6536;DHT22;34330;52.08032700;5.40923460;2022-12-18T06:35:27;-1.70;80.40
6536;DHT22;34330;52.08032700;5.40923460;2022-12-18T06:40:30;-1.70;80.40
6536;DHT22;34330;52.08032700;5.40923460;2022-12-18T06:43:01;-1.80;80.30
6536;DHT22;34330;52.08032700;5.40923460;2022-12-18T06:45:35;-1.80;80.30
6536;DHT22;34330;52.08032700;5.40923460;2022-12-18T06:48:05;-1.80;80.40
6536;DHT22;34330;52.08032700;5.40923460;2022-12-18T06:53:02;-1.80;80.40
6536;DHT22;34330;52.08032700;5.40923460;2022-12-18T06:58:03;-1.90;80.30
6536;DHT22;34330;52.08032700;5.40923460;2022-12-18T07:00:37;-2.00;80.30
6536;DHT22;34330;52.08032700;5.40923460;2022-12-18T07:03:07;-1.90;80.40
6536;DHT22;34330;52.08032700;5.40923460;2022-12-18T07:05:44;-1.90;80.40
6536;DHT22;34330;52.08032700;5.40923460;2022-12-18T07:08:29;-1.90;80.30
6536;DHT22;34330;52.08032700;5.40923460;2022-12-18T07:10:57;-1.90;80.50
6536;DHT22;34330;52.08032700;5.40923460;2022-12-18T07:13:25;-1.90;80.30
6536;DHT22;34330;52.08032700;5.40923460;2022-12-18T07:16:03;-1.90;80.50
6536;DHT22;34330;52.08032700;5.40923460;2022-12-18T07:18:42;-1.90;80.60
6536;DHT22;34330;52.08032700;5.40923460;2022-12-18T07:21:15;-1.90;80.60
6536;DHT22;34330;52.08032700;5.40923460;2022-12-18T07:23:54;-1.90;80.70
6536;DHT22;34330;52.08032700;5.40923460;2022-12-18T07:28:58;-1.90;80.70
6536;DHT22;34330;52.08032700;5.40923460;2022-12-18T07:31:27;-2.00;80.70
6536;DHT22;34330;52.08032700;5.40923460;2022-12-18T07:33:59;-1.90;80.80
6536;DHT22;34330;52.08032700;5.40923460;2022-12-18T07:36:27;-2.10;80.70
6536;DHT22;34330;52.08032700;5.40923460;2022-12-18T07:38:56;-1.90;80.80
6536;DHT22;34330;52.08032700;5.40923460;2022-12-18T07:41:24;-1.90;80.80
6536;DHT22;34330;52.08032700;5.40923460;2022-12-18T07:43:52;-1.90;80.90
6536;DHT22;34330;52.08032700;5.40923460;2022-12-18T07:46:23;-1.80;80.90
6536;DHT22;34330;52.08032700;5.40923460;2022-12-18T07:48:54;-1.80;81.00
6536;DHT22;34330;52.08032700;5.40923460;2022-12-18T07:51:26;-1.90;81.00
6536;DHT22;34330;52.08032700;5.40923460;2022-12-18T07:53:54;-1.90;81.00
6536;DHT22;34330;52.08032700;5.40923460;2022-12-18T07:56:26;-1.90;81.00
6536;DHT22;34330;52.08032700;5.40923460;2022-12-18T07:58:57;-1.90;81.00
6536;DHT22;34330;52.08032700;5.40923460;2022-12-18T08:01:26;-1.90;81.10
6536;DHT22;34330;52.08032700;5.40923460;2022-12-18T08:03:55;-1.90;81.00
6536;DHT22;34330;52.08032700;5.40923460;2022-12-18T08:06:30;-1.90;81.00
6536;DHT22;34330;52.08032700;5.40923460;2022-12-18T08:09:05;-1.80;81.20
6536;DHT22;34330;52.08032700;5.40923460;2022-12-18T08:11:45;-1.80;81.30
6536;DHT22;34330;52.08032700;5.40923460;2022-12-18T08:14:21;-1.80;80.90
6536;DHT22;34330;52.08032700;5.40923460;2022-12-18T08:19:24;-1.80;81.50
6536;DHT22;34330;52.08032700;5.40923460;2022-12-18T08:21:54;-1.80;81.60
6536;DHT22;34330;52.08032700;5.40923460;2022-12-18T08:24:27;-1.80;81.60
6536;DHT22;34330;52.08032700;5.40923460;2022-12-18T08:26:55;-1.80;81.60
6536;DHT22;34330;52.08032700;5.40923460;2022-12-18T08:29:47;-1.70;81.80
6536;DHT22;34330;52.08032700;5.40923460;2022-12-18T08:32:19;-1.60;82.00
6536;DHT22;34330;52.08032700;5.40923460;2022-12-18T08:34:55;-1.70;81.90
6536;DHT22;34330;52.08032700;5.40923460;2022-12-18T08:37:29;-1.70;82.00
6536;DHT22;34330;52.08032700;5.40923460;2022-12-18T08:39:58;-1.60;82.10
6536;DHT22;34330;52.08032700;5.40923460;2022-12-18T08:42:35;-1.60;82.10
6536;DHT22;34330;52.08032700;5.40923460;2022-12-18T08:50:39;-1.40;82.40
6536;DHT22;34330;52.08032700;5.40923460;2022-12-18T08:53:23;-1.30;82.50
6536;DHT22;34330;52.08032700;5.40923460;2022-12-18T09:01:10;-1.20;82.60
6536;DHT22;34330;52.08032700;5.40923460;2022-12-18T09:03:39;-1.20;82.80
6536;DHT22;34330;52.08032700;5.40923460;2022-12-18T09:06:14;-1.10;82.80
6536;DHT22;34330;52.08032700;5.40923460;2022-12-18T09:08:49;-1.00;83.10
6536;DHT22;34330;52.08032700;5.40923460;2022-12-18T09:11:26;-1.00;83.00
6536;DHT22;34330;52.08032700;5.40923460;2022-12-18T09:14:04;-1.00;83.00
6536;DHT22;34330;52.08032700;5.40923460;2022-12-18T09:16:37;-0.90;83.10
6536;DHT22;34330;52.08032700;5.40923460;2022-12-18T09:19:09;-0.90;82.90
6536;DHT22;34330;52.08032700;5.40923460;2022-12-18T09:21:38;-0.80;83.10
6536;DHT22;34330;52.08032700;5.40923460;2022-12-18T09:24:15;-0.70;83.20
6536;DHT22;34330;52.08032700;5.40923460;2022-12-18T09:26:53;-0.60;83.30
6536;DHT22;34330;52.08032700;5.40923460;2022-12-18T09:29:24;-0.60;83.00
6536;DHT22;34330;52.08032700;5.40923460;2022-12-18T09:39:29;-0.40;83.10
6536;DHT22;34330;52.08032700;5.40923460;2022-12-18T09:44:33;-0.40;83.00
6536;DHT22;34330;52.08032700;5.40923460;2022-12-18T09:47:16;-0.50;82.80
6536;DHT22;34330;52.08032700;5.40923460;2022-12-18T09:49:54;-0.20;83.10
6536;DHT22;34330;52.08032700;5.40923460;2022-12-18T09:52:29;-0.20;83.00
6536;DHT22;34330;52.08032700;5.40923460;2022-12-18T09:55:38;-3.10;80.20
6536;DHT22;34330;52.08032700;5.40923460;2022-12-18T09:58:35;0.40;83.10
6536;DHT22;34330;52.08032700;5.40923460;2022-12-18T10:01:12;-0.10;83.00
6536;DHT22;34330;52.08032700;5.40923460;2022-12-18T10:03:45;0.00;83.00
6536;DHT22;34330;52.08032700;5.40923460;2022-12-18T10:06:26;0.00;82.90
6536;DHT22;34330;52.08032700;5.40923460;2022-12-18T10:09:01;0.10;83.00
6536;DHT22;34330;52.08032700;5.40923460;2022-12-18T10:11:40;0.10;83.00
6536;DHT22;34330;52.08032700;5.40923460;2022-12-18T10:14:26;0.20;83.00
6536;DHT22;34330;52.08032700;5.40923460;2022-12-18T10:17:02;0.30;83.20
6536;DHT22;34330;52.08032700;5.40923460;2022-12-18T10:19:47;0.20;82.90
6536;DHT22;34330;52.08032700;5.40923460;2022-12-18T10:29:45;0.30;82.60
6536;DHT22;34330;52.08032700;5.40923460;2022-12-18T10:32:19;0.50;83.00
6536;DHT22;34330;52.08032700;5.40923460;2022-12-18T10:38:28;0.60;83.00
6536;DHT22;34330;52.08032700;5.40923460;2022-12-18T10:41:24;0.60;82.90
6536;DHT22;34330;52.08032700;5.40923460;2022-12-18T10:44:15;0.70;83.00
6536;DHT22;34330;52.08032700;5.40923460;2022-12-18T10:47:18;0.70;82.90
6536;DHT22;34330;52.08032700;5.40923460;2022-12-18T10:49:53;0.80;82.90
6536;DHT22;34330;52.08032700;5.40923460;2022-12-18T10:52:31;0.80;82.90
6536;DHT22;34330;52.08032700;5.40923460;2022-12-18T10:55:21;0.90;83.00
6536;DHT22;34330;52.08032700;5.40923460;2022-12-18T10:57:52;3.10;84.80
6536;DHT22;34330;52.08032700;5.40923460;2022-12-18T11:00:28;1.00;82.80
6536;DHT22;34330;52.08032700;5.40923460;2022-12-18T11:02:58;1.00;82.70
6536;DHT22;34330;52.08032700;5.40923460;2022-12-18T11:05:33;1.10;82.90
6536;DHT22;34330;52.08032700;5.40923460;2022-12-18T11:08:12;1.10;82.90
6536;DHT22;34330;52.08032700;5.40923460;2022-12-18T11:10:59;1.10;82.70
6536;DHT22;34330;52.08032700;5.40923460;2022-12-18T11:13:34;1.20;82.90
6536;DHT22;34330;52.08032700;5.40923460;2022-12-18T11:16:05;1.20;82.90
6536;DHT22;34330;52.08032700;5.40923460;2022-12-18T11:18:36;1.30;82.80
6536;DHT22;34330;52.08032700;5.40923460;2022-12-18T11:21:09;1.30;82.90
6536;DHT22;34330;52.08032700;5.40923460;2022-12-18T11:23:48;1.40;82.80
6536;DHT22;34330;52.08032700;5.40923460;2022-12-18T11:26:23;1.40;82.60
6536;DHT22;34330;52.08032700;5.40923460;2022-12-18T11:29:10;1.40;82.60
6536;DHT22;34330;52.08032700;5.40923460;2022-12-18T11:34:27;1.50;82.40
6536;DHT22;34330;52.08032700;5.40923460;2022-12-18T11:37:04;1.60;82.40
6536;DHT22;34330;52.08032700;5.40923460;2022-12-18T11:39:44;1.70;82.30
6536;DHT22;34330;52.08032700;5.40923460;2022-12-18T11:42:24;1.70;82.10
6536;DHT22;34330;52.08032700;5.40923460;2022-12-18T11:44:57;1.70;82.00
6536;DHT22;34330;52.08032700;5.40923460;2022-12-18T11:47:31;1.80;82.00
6536;DHT22;34330;52.08032700;5.40923460;2022-12-18T11:50:14;1.80;81.80
6536;DHT22;34330;52.08032700;5.40923460;2022-12-18T11:55:36;1.90;81.70
6536;DHT22;34330;52.08032700;5.40923460;2022-12-18T11:58:12;1.90;81.60
6536;DHT22;34330;52.08032700;5.40923460;2022-12-18T12:00:50;2.00;81.70
6536;DHT22;34330;52.08032700;5.40923460;2022-12-18T12:03:40;2.10;81.60
6536;DHT22;34330;52.08032700;5.40923460;2022-12-18T12:06:33;2.00;81.30
6536;DHT22;34330;52.08032700;5.40923460;2022-12-18T12:09:12;2.00;81.10
6536;DHT22;34330;52.08032700;5.40923460;2022-12-18T12:11:51;2.20;81.40
6536;DHT22;34330;52.08032700;5.40923460;2022-12-18T12:14:34;2.20;81.20
6536;DHT22;34330;52.08032700;5.40923460;2022-12-18T12:17:14;2.20;81.20
6536;DHT22;34330;52.08032700;5.40923460;2022-12-18T12:19:56;2.30;81.20
6536;DHT22;34330;52.08032700;5.40923460;2022-12-18T12:22:35;2.20;81.00
6536;DHT22;34330;52.08032700;5.40923460;2022-12-18T12:25:30;2.30;81.10
6536;DHT22;34330;52.08032700;5.40923460;2022-12-18T12:28:11;2.30;81.20
6536;DHT22;34330;52.08032700;5.40923460;2022-12-18T12:30:52;2.30;81.10
6536;DHT22;34330;52.08032700;5.40923460;2022-12-18T12:37:40;2.40;81.10
6536;DHT22;34330;52.08032700;5.40923460;2022-12-18T12:41:32;2.40;81.10
6536;DHT22;34330;52.08032700;5.40923460;2022-12-18T12:43:45;2.70;81.20
6536;DHT22;34330;52.08032700;5.40923460;2022-12-18T12:46:36;2.40;80.90
6536;DHT22;34330;52.08032700;5.40923460;2022-12-18T12:53:31;2.50;81.00
6536;DHT22;34330;52.08032700;5.40923460;2022-12-18T12:56:38;2.60;80.80
6536;DHT22;34330;52.08032700;5.40923460;2022-12-18T12:59:35;2.60;80.80
6536;DHT22;34330;52.08032700;5.40923460;2022-12-18T13:02:15;2.60;80.70
6536;DHT22;34330;52.08032700;5.40923460;2022-12-18T13:05:16;2.60;80.60
6536;DHT22;34330;52.08032700;5.40923460;2022-12-18T13:08:54;2.60;80.60
6536;DHT22;34330;52.08032700;5.40923460;2022-12-18T13:11:38;2.70;80.60
6536;DHT22;34330;52.08032700;5.40923460;2022-12-18T13:14:31;2.70;79.70
6536;DHT22;34330;52.08032700;5.40923460;2022-12-18T13:18:00;2.70;80.20
6536;DHT22;34330;52.08032700;5.40923460;2022-12-18T13:20:41;2.80;80.30
6536;DHT22;34330;52.08032700;5.40923460;2022-12-18T13:23:41;2.80;80.20
6536;DHT22;34330;52.08032700;5.40923460;2022-12-18T13:26:31;2.80;79.90
6536;DHT22;34330;52.08032700;5.40923460;2022-12-18T13:29:40;2.80;79.80
6536;DHT22;34330;52.08032700;5.40923460;2022-12-18T13:35:40;2.90;79.60
6536;DHT22;34330;52.08032700;5.40923460;2022-12-18T13:38:36;2.90;79.50
6536;DHT22;34330;52.08032700;5.40923460;2022-12-18T13:41:27;5.30;81.30
6536;DHT22;34330;52.08032700;5.40923460;2022-12-18T13:44:20;2.90;79.40
6536;DHT22;34330;52.08032700;5.40923460;2022-12-18T13:46:55;4.10;80.40
6536;DHT22;34330;52.08032700;5.40923460;2022-12-18T13:56:32;3.00;79.20
6536;DHT22;34330;52.08032700;5.40923460;2022-12-18T13:59:34;3.00;79.00
6536;DHT22;34330;52.08032700;5.40923460;2022-12-18T14:02:44;3.00;79.00
6536;DHT22;34330;52.08032700;5.40923460;2022-12-18T14:06:05;0.10;75.70
6536;DHT22;34330;52.08032700;5.40923460;2022-12-18T14:09:40;3.00;78.90
6536;DHT22;34330;52.08032700;5.40923460;2022-12-18T14:13:06;3.00;79.20
6536;DHT22;34330;52.08032700;5.40923460;2022-12-18T14:15:57;3.10;78.50
6536;DHT22;34330;52.08032700;5.40923460;2022-12-18T14:18:57;3.10;78.50
6536;DHT22;34330;52.08032700;5.40923460;2022-12-18T14:21:55;3.10;78.90
6536;DHT22;34330;52.08032700;5.40923460;2022-12-18T14:24:38;3.00;78.40
6536;DHT22;34330;52.08032700;5.40923460;2022-12-18T14:27:44;3.10;78.30
6536;DHT22;34330;52.08032700;5.40923460;2022-12-18T14:30:45;4.00;79.50
6536;DHT22;34330;52.08032700;5.40923460;2022-12-18T14:36:25;3.10;78.40
6536;DHT22;34330;52.08032700;5.40923460;2022-12-18T14:39:19;3.10;78.10
6536;DHT22;34330;52.08032700;5.40923460;2022-12-18T14:42:29;3.10;78.10
6536;DHT22;34330;52.08032700;5.40923460;2022-12-18T14:45:43;3.10;78.00
6536;DHT22;34330;52.08032700;5.40923460;2022-12-18T14:48:53;3.10;78.10
6536;DHT22;34330;52.08032700;5.40923460;2022-12-18T14:51:36;3.20;78.30
6536;DHT22;34330;52.08032700;5.40923460;2022-12-18T14:54:31;3.10;77.40
6536;DHT22;34330;52.08032700;5.40923460;2022-12-18T14:57:35;3.10;77.60
6536;DHT22;34330;52.08032700;5.40923460;2022-12-18T15:14:43;3.20;77.20
6536;DHT22;34330;52.08032700;5.40923460;2022-12-18T15:18:05;3.20;77.00
6536;DHT22;34330;52.08032700;5.40923460;2022-12-18T15:21:10;6.00;79.70
6536;DHT22;34330;52.08032700;5.40923460;2022-12-18T15:24:17;3.20;76.60
6536;DHT22;34330;52.08032700;5.40923460;2022-12-18T15:34:49;3.20;76.90
6536;DHT22;34330;52.08032700;5.40923460;2022-12-18T15:37:55;3.20;76.60
6536;DHT22;34330;52.08032700;5.40923460;2022-12-18T15:41:01;3.20;76.40
6536;DHT22;34330;52.08032700;5.40923460;2022-12-18T15:44:14;2.30;75.20
6536;DHT22;34330;52.08032700;5.40923460;2022-12-18T15:49:42;3.30;76.40
6536;DHT22;34330;52.08032700;5.40923460;2022-12-18T15:52:36;3.10;76.20
6536;DHT22;34330;52.08032700;5.40923460;2022-12-18T15:55:24;3.20;76.30
6536;DHT22;34330;52.08032700;5.40923460;2022-12-18T15:58:28;3.30;76.30
6536;DHT22;34330;52.08032700;5.40923460;2022-12-18T16:01:01;7.40;79.90
6536;DHT22;34330;52.08032700;5.40923460;2022-12-18T16:06:38;3.20;75.80
6536;DHT22;34330;52.08032700;5.40923460;2022-12-18T16:09:56;3.20;75.90
6536;DHT22;34330;52.08032700;5.40923460;2022-12-18T16:13:23;3.30;76.30
6536;DHT22;34330;52.08032700;5.40923460;2022-12-18T16:16:12;3.30;76.30
6536;DHT22;34330;52.08032700;5.40923460;2022-12-18T16:19:04;3.30;76.00
6536;DHT22;34330;52.08032700;5.40923460;2022-12-18T16:21:53;3.20;75.80
6536;DHT22;34330;52.08032700;5.40923460;2022-12-18T16:24:28;3.30;75.90
6536;DHT22;34330;52.08032700;5.40923460;2022-12-18T16:27:37;3.30;76.00
6536;DHT22;34330;52.08032700;5.40923460;2022-12-18T16:37:09;3.30;76.00
6536;DHT22;34330;52.08032700;5.40923460;2022-12-18T16:43:33;3.30;76.00
6536;DHT22;34330;52.08032700;5.40923460;2022-12-18T16:47:00;3.30;75.80
6536;DHT22;34330;52.08032700;5.40923460;2022-12-18T16:50:02;3.30;75.40
6536;DHT22;34330;52.08032700;5.40923460;2022-12-18T17:00:22;3.30;75.50
6536;DHT22;34330;52.08032700;5.40923460;2022-12-18T17:02:53;3.30;75.60
6536;DHT22;34330;52.08032700;5.40923460;2022-12-18T17:05:28;3.30;74.80
6536;DHT22;34330;52.08032700;5.40923460;2022-12-18T17:10:28;3.30;75.10
6536;DHT22;34330;52.08032700;5.40923460;2022-12-18T17:15:27;3.20;75.00
6536;DHT22;34330;52.08032700;5.40923460;2022-12-18T17:27:54;3.40;75.50
6536;DHT22;34330;52.08032700;5.40923460;2022-12-18T17:30:27;3.30;75.30
6536;DHT22;34330;52.08032700;5.40923460;2022-12-18T17:32:56;3.40;75.40
6536;DHT22;34330;52.08032700;5.40923460;2022-12-18T17:35:25;3.40;75.30
6536;DHT22;34330;52.08032700;5.40923460;2022-12-18T17:38:03;3.40;75.30
6536;DHT22;34330;52.08032700;5.40923460;2022-12-18T17:43:05;3.40;75.10
6536;DHT22;34330;52.08032700;5.40923460;2022-12-18T17:45:36;3.50;75.30
6536;DHT22;34330;52.08032700;5.40923460;2022-12-18T17:48:05;3.40;75.00
6536;DHT22;34330;52.08032700;5.40923460;2022-12-18T17:50:35;3.40;74.80
6536;DHT22;34330;52.08032700;5.40923460;2022-12-18T17:53:06;3.40;74.70
6536;DHT22;34330;52.08032700;5.40923460;2022-12-18T17:58:09;3.40;75.20
6536;DHT22;34330;52.08032700;5.40923460;2022-12-18T18:03:14;3.40;75.50
6536;DHT22;34330;52.08032700;5.40923460;2022-12-18T18:06:28;6.90;78.60
6536;DHT22;34330;52.08032700;5.40923460;2022-12-18T18:09:17;3.50;75.60
6536;DHT22;34330;52.08032700;5.40923460;2022-12-18T18:19:53;3.50;75.70